Time;durP1;ratioP1;P1;durP2;ratioP2;P2;SDS_P1;SDS_P2;PMS_P1;PMS_P2;Temp;Humidity;BMP_temperature;BMP_pressure;BME280_temperature;BME280_humidity;BME280_pressure;Samples;Min_cycle;Max_cycle;Signal;HPM_P1;HPM_P2
2023/05/24 00:00:31;;;;;;;;;;;;;;;23.83;31.25;101979.59;4145302;28;20036;-63
2023/05/24 00:02:33;;;;;;;;;;;;;;;23.84;31.15;101982.22;4144352;28;19932;-63
2023/05/24 00:04:35;;;;;;;;;;;;;;;23.83;31.25;101980.47;4143966;28;19925;-63
2023/05/24 00:06:36;;;;;;;;;;;;;;;23.83;31.25;101977.78;4144519;28;20193;-62
2023/05/24 00:08:38;;;;;;;;;;;;;;;23.84;31.14;101974.16;4144892;28;19925;-62
2023/05/24 00:10:40;;;;;;;;;;;;;;;23.86;30.98;101972.19;4145081;28;20008;-63
2023/05/24 00:12:41;;;;;;;;;;;;;;;23.87;31.13;101965.84;4145067;28;20018;-62
2023/05/24 00:14:43;;;;;;;;;;;;;;;23.88;30.99;101966.72;4145114;28;19926;-62
2023/05/24 00:16:45;;;;;;;;;;;;;;;23.88;30.88;101962.19;4144041;28;20329;-63
2023/05/24 00:18:47;;;;;;;;;;;;;;;23.89;30.84;101961.22;4145137;28;19932;-62
2023/05/24 00:20:50;;;;;;;;;;;;;;;23.90;30.80;101956.69;4144784;28;19925;-63
2023/05/24 00:22:52;;;;;;;;;;;;;;;23.92;31.15;101968.19;4145068;28;19993;-61
2023/05/24 00:24:53;;;;;;;;;;;;;;;23.93;30.91;101961.91;4145100;28;20019;-62
2023/05/24 00:26:55;;;;;;;;;;;;;;;23.92;31.01;101952.09;4143691;28;19928;-62
2023/05/24 00:28:56;;;;;;;;;;;;;;;23.92;30.97;101960.13;4144741;28;19926;-62
2023/05/24 00:30:58;;;;;;;;;;;;;;;23.92;30.95;101954.75;4144278;28;19926;-61
2023/05/24 00:32:59;;;;;;;;;;;;;;;23.92;30.84;101955.66;4144715;28;20020;-62
2023/05/24 00:35:02;;;;;;;;;;;;;;;23.94;30.92;101952.88;4158800;28;20271;-63
2023/05/24 00:37:03;;;;;;;;;;;;;;;23.93;30.71;101952.00;4160144;28;20367;-61
2023/05/24 00:39:05;;;;;;;;;;;;;;;23.95;31.06;101943.84;4149370;28;19945;-62
2023/05/24 00:41:07;;;;;;;;;;;;;;;23.97;30.92;101943.72;4144728;28;19951;-62
2023/05/24 00:43:08;;;;;;;;;;;;;;;23.99;30.81;101947.16;4144887;28;20383;-62
2023/05/24 00:45:10;;;;;;;;;;;;;;;24.00;30.80;101941.66;4143263;28;20266;-62
2023/05/24 00:47:11;;;;;;;;;;;;;;;24.00;30.68;101940.78;4143828;28;20025;-61
2023/05/24 00:49:13;;;;;;;;;;;;;;;24.03;30.87;101946.81;4144548;28;20389;-62
2023/05/24 00:51:15;;;;;;;;;;;;;;;24.02;31.06;101939.75;4144736;28;20024;-62
2023/05/24 00:53:16;;;;;;;;;;;;;;;24.03;30.79;101945.97;4144652;28;19926;-62
2023/05/24 00:55:18;;;;;;;;;;;;;;;24.02;31.03;101937.06;4143415;28;20441;-62
2023/05/24 00:57:22;;;;;;;;;;;;;;;24.02;31.00;101934.38;4143686;28;19925;-62
2023/05/24 00:59:24;;;;;;;;;;;;;;;24.03;30.62;101935.22;4144514;28;20345;-62
2023/05/24 01:01:29;;;;;;;;;;;;;;;24.03;30.77;101929.84;4144704;28;19932;-62
2023/05/24 01:03:32;;;;;;;;;;;;;;;24.03;30.95;101928.00;4144417;28;19975;-62
2023/05/24 01:05:34;;;;;;;;;;;;;;;24.03;30.87;101938.75;4143300;28;20385;-62
2023/05/24 01:07:43;;;;;;;;;;;;;;;24.04;30.95;101943.16;4143502;28;19929;-62
2023/05/24 01:09:58;;;;;;;;;;;;;;;24.06;30.95;101935.84;4144384;28;19925;-61
2023/05/24 01:12:10;;;;;;;;;;;;;;;24.07;30.92;101934.00;4143479;28;20013;-62
2023/05/24 01:14:15;;;;;;;;;;;;;;;24.09;30.77;101937.44;4145378;28;20406;-65
2023/05/24 01:16:20;;;;;;;;;;;;;;;24.09;30.54;101945.50;4147269;28;20474;-62
2023/05/24 01:18:29;;;;;;;;;;;;;;;24.07;30.38;101942.94;4146182;28;19929;-62
2023/05/24 01:20:32;;;;;;;;;;;;;;;24.09;30.82;101946.34;4147333;28;20300;-62
2023/05/24 01:22:52;;;;;;;;;;;;;;;24.09;30.58;101943.66;4147369;28;20012;-62
2023/05/24 01:24:56;;;;;;;;;;;;;;;24.09;30.89;101943.66;4146960;28;19929;-62
2023/05/24 01:27:08;;;;;;;;;;;;;;;24.09;30.89;101940.97;4145900;28;19930;-62
2023/05/24 01:29:09;;;;;;;;;;;;;;;24.06;30.58;101941.22;4146658;28;19932;-62
2023/05/24 01:31:12;;;;;;;;;;;;;;;24.08;30.76;101941.97;4147250;28;20006;-62
2023/05/24 01:33:14;;;;;;;;;;;;;;;24.09;30.69;101937.44;4147038;28;20402;-61
2023/05/24 01:35:15;;;;;;;;;;;;;;;24.09;30.58;101943.66;4163044;28;20382;-61
2023/05/24 01:37:17;;;;;;;;;;;;;;;24.12;30.48;101947.09;4161198;28;19979;-62
2023/05/24 01:39:19;;;;;;;;;;;;;;;24.12;30.53;101942.59;4149781;28;20387;-61
2023/05/24 01:41:40;;;;;;;;;;;;;;;24.14;30.65;101955.91;4147055;28;19925;-62
2023/05/24 01:44:04;;;;;;;;;;;;;;;24.14;30.73;101959.44;4145536;28;20176;-62
2023/05/24 01:46:21;;;;;;;;;;;;;;;24.15;30.76;101957.63;4146714;28;19995;-63
2023/05/24 01:48:23;;;;;;;;;;;;;;;24.13;30.70;101952.34;4145739;28;19983;-62
2023/05/24 01:50:31;;;;;;;;;;;;;;;24.13;30.75;101955.03;4146693;28;20016;-63
2023/05/24 01:52:34;;;;;;;;;;;;;;;24.13;30.83;101954.19;4146849;28;19929;-62
2023/05/24 01:54:42;;;;;;;;;;;;;;;24.14;30.81;101953.22;4146726;28;19972;-63
2023/05/24 01:56:45;;;;;;;;;;;;;;;24.12;30.54;101952.47;4146238;28;20008;-63
2023/05/24 01:58:49;;;;;;;;;;;;;;;24.13;30.71;101959.56;4146399;28;19930;-63
2023/05/24 02:00:51;;;;;;;;;;;;;;;24.13;30.64;101960.41;4146752;28;20012;-63
2023/05/24 02:02:52;;;;;;;;;;;;;;;24.15;30.59;101949.56;4146677;28;19936;-63
2023/05/24 02:04:55;;;;;;;;;;;;;;;24.15;30.47;101952.25;4146762;28;19930;-63
2023/05/24 02:06:56;;;;;;;;;;;;;;;24.15;30.71;101966.53;4145968;28;20298;-63
2023/05/24 02:08:58;;;;;;;;;;;;;;;24.16;30.56;101962.91;4146340;28;19972;-63
2023/05/24 02:10:59;;;;;;;;;;;;;;;24.17;30.27;101970.00;4146418;28;20020;-62
2023/05/24 02:13:01;;;;;;;;;;;;;;;24.17;30.61;101961.94;4146428;28;19925;-63
2023/05/24 02:15:03;;;;;;;;;;;;;;;24.19;30.73;101964.50;4146506;28;19940;-63
2023/05/24 02:17:05;;;;;;;;;;;;;;;24.18;30.56;101965.47;4145485;28;20256;-63
2023/05/24 02:19:07;;;;;;;;;;;;;;;24.17;30.58;101956.56;4146369;28;20310;-63
2023/05/24 02:21:09;;;;;;;;;;;;;;;24.17;30.55;101958.38;4146680;28;19932;-63
2023/05/24 02:23:11;;;;;;;;;;;;;;;24.16;30.50;101957.53;4146519;28;19945;-63
2023/05/24 02:25:12;;;;;;;;;;;;;;;24.17;30.73;101950.31;4146371;28;20025;-63
2023/05/24 02:27:14;;;;;;;;;;;;;;;24.16;30.77;101951.31;4143530;28;20019;-63
2023/05/24 02:29:16;;;;;;;;;;;;;;;24.18;30.61;101952.03;4146339;28;20018;-63
2023/05/24 02:31:17;;;;;;;;;;;;;;;24.20;30.65;101956.31;4146277;28;19936;-63
2023/05/24 02:33:19;;;;;;;;;;;;;;;24.20;30.43;101950.94;4146481;28;20462;-63
2023/05/24 02:35:21;;;;;;;;;;;;;;;24.22;30.57;101948.16;4162777;28;19967;-63
2023/05/24 02:37:23;;;;;;;;;;;;;;;24.23;30.42;101939.13;4161657;28;20376;-63
2023/05/24 02:39:24;;;;;;;;;;;;;;;24.23;30.66;101936.44;4148311;28;19925;-63
2023/05/24 02:41:26;;;;;;;;;;;;;;;24.22;30.72;101945.47;4144751;28;20527;-63
2023/05/24 02:43:28;;;;;;;;;;;;;;;24.22;30.57;101940.09;4146373;28;20347;-63
2023/05/24 02:45:29;;;;;;;;;;;;;;;24.23;30.28;101947.19;4146337;28;20012;-63
2023/05/24 02:47:31;;;;;;;;;;;;;;;24.22;30.35;101940.09;4145246;28;20483;-63
2023/05/24 02:49:32;;;;;;;;;;;;;;;24.21;30.37;101935.69;4146181;28;20408;-63
2023/05/24 02:51:35;;;;;;;;;;;;;;;24.21;30.39;101941.91;4144846;28;19947;-62
2023/05/24 02:53:37;;;;;;;;;;;;;;;24.21;30.57;101941.06;4146212;28;20012;-63
2023/05/24 02:55:38;;;;;;;;;;;;;;;24.21;30.27;101927.63;4146013;28;19926;-63
2023/05/24 02:57:40;;;;;;;;;;;;;;;24.21;30.48;101924.94;4145288;28;20064;-63
2023/05/24 02:59:42;;;;;;;;;;;;;;;24.21;30.38;101924.94;4145926;28;20286;-62
2023/05/24 03:01:44;;;;;;;;;;;;;;;24.22;30.58;101924.81;4146227;28;19952;-63
2023/05/24 03:03:45;;;;;;;;;;;;;;;24.24;30.52;101940.81;4146067;28;19933;-63
2023/05/24 03:05:47;;;;;;;;;;;;;;;24.24;30.58;101932.75;4145795;28;20020;-63
2023/05/24 03:07:49;;;;;;;;;;;;;;;24.25;30.46;101929.09;4143503;28;19929;-63
2023/05/24 03:09:50;;;;;;;;;;;;;;;24.24;30.46;101930.94;4145962;28;20037;-63
2023/05/24 03:11:53;;;;;;;;;;;;;;;24.24;30.47;101941.69;4145495;28;20024;-63
2023/05/24 03:13:54;;;;;;;;;;;;;;;24.23;30.26;101929.22;4145711;28;19955;-63
2023/05/24 03:15:56;;;;;;;;;;;;;;;24.23;30.58;101926.53;4145714;28;19952;-63
2023/05/24 03:17:58;;;;;;;;;;;;;;;24.23;30.37;101928.38;4144662;28;20008;-63
2023/05/24 03:20:00;;;;;;;;;;;;;;;24.22;30.63;101926.66;4145996;28;19929;-64
2023/05/24 03:22:01;;;;;;;;;;;;;;;24.22;30.59;101923.97;4145797;28;19925;-63
2023/05/24 03:24:03;;;;;;;;;;;;;;;24.21;30.30;101920.41;4145820;28;19929;-63
2023/05/24 03:26:06;;;;;;;;;;;;;;;24.22;30.36;101921.28;4145316;28;20341;-63
2023/05/24 03:28:07;;;;;;;;;;;;;;;24.23;30.64;101921.16;4144319;28;19957;-63
2023/05/24 03:30:09;;;;;;;;;;;;;;;24.22;30.38;101914.06;4145655;28;19925;-62
2023/05/24 03:32:11;;;;;;;;;;;;;;;24.23;30.29;101923.84;4145692;28;19926;-63
2023/05/24 03:34:12;;;;;;;;;;;;;;;24.24;30.28;101933.63;4152816;28;19925;-64
2023/05/24 03:36:14;;;;;;;;;;;;;;;24.24;30.26;101928.25;4145792;28;20394;-63
2023/05/24 03:38:15;;;;;;;;;;;;;;;24.25;30.45;101926.41;4169698;28;20026;-63
2023/05/24 03:40:17;;;;;;;;;;;;;;;24.25;30.24;101931.78;4230681;28;19932;-63
2023/05/24 03:42:18;;;;;;;;;;;;;;;24.25;30.46;101926.41;4231019;28;19924;-63
2023/05/24 03:44:20;;;;;;;;;;;;;;;24.25;30.28;101929.09;4230650;28;19924;-63
2023/05/24 03:46:21;;;;;;;;;;;;;;;24.22;30.58;101930.19;4230846;28;19931;-62
2023/05/24 03:48:23;;;;;;;;;;;;;;;24.21;30.13;101925.78;4229714;28;19928;-63
2023/05/24 03:50:25;;;;;;;;;;;;;;;24.22;30.14;101922.13;4230601;28;20031;-63
2023/05/24 03:52:26;;;;;;;;;;;;;;;24.21;30.50;101939.22;4230744;28;19931;-63
2023/05/24 03:54:28;;;;;;;;;;;;;;;24.23;30.24;101933.75;4230430;28;19928;-63
2023/05/24 03:56:29;;;;;;;;;;;;;;;24.23;30.25;101937.28;4230714;28;19924;-62
2023/05/24 03:58:31;;;;;;;;;;;;;;;24.24;30.30;101941.69;4228085;28;19952;-64
2023/05/24 04:00:32;;;;;;;;;;;;;;;24.26;30.49;101946.09;4229346;28;20125;-62
2023/05/24 04:02:36;;;;;;;;;;;;;;;24.27;30.46;101947.81;4230668;28;20388;-65
2023/05/24 04:04:38;;;;;;;;;;;;;;;24.26;30.11;101944.25;4230518;28;19927;-64
2023/05/24 04:06:40;;;;;;;;;;;;;;;24.28;30.33;101953.06;4230505;28;19974;-64
2023/05/24 04:08:42;;;;;;;;;;;;;;;24.27;30.40;101945.97;4229355;28;20036;-64
2023/05/24 04:10:44;;;;;;;;;;;;;;;24.27;30.46;101945.97;4230561;28;19975;-64
2023/05/24 04:12:45;;;;;;;;;;;;;;;24.25;30.54;101947.91;4230450;28;20403;-63
2023/05/24 04:14:47;;;;;;;;;;;;;;;24.25;30.08;101945.22;4230567;28;19967;-64
2023/05/24 04:16:48;;;;;;;;;;;;;;;24.25;30.16;101947.91;4230238;28;20433;-64
2023/05/24 04:18:50;;;;;;;;;;;;;;;24.24;30.43;101946.19;4229320;28;19927;-64
2023/05/24 04:20:52;;;;;;;;;;;;;;;24.24;30.26;101948.88;4230603;28;19924;-64
2023/05/24 04:22:54;;;;;;;;;;;;;;;24.26;30.53;101948.78;4230065;28;20025;-63
2023/05/24 04:24:56;;;;;;;;;;;;;;;24.27;30.06;101950.50;4230396;28;20005;-63
2023/05/24 04:26:58;;;;;;;;;;;;;;;24.27;30.25;101950.50;4168063;28;20390;-63
2023/05/24 04:29:00;;;;;;;;;;;;;;;24.20;30.45;101950.94;4144033;28;20016;-63
2023/05/24 04:31:04;;;;;;;;;;;;;;;24.28;30.33;101955.75;4144917;28;19934;-63
2023/05/24 04:33:07;;;;;;;;;;;;;;;24.28;30.38;101955.75;4144944;28;19933;-63
2023/05/24 04:35:09;;;;;;;;;;;;;;;24.28;30.16;101965.63;4159803;28;19929;-63
2023/05/24 04:37:12;;;;;;;;;;;;;;;24.28;30.15;101961.13;4160490;28;19925;-63
2023/05/24 04:39:14;;;;;;;;;;;;;;;24.27;30.15;101974.69;4147937;28;19936;-63
2023/05/24 04:41:17;;;;;;;;;;;;;;;24.27;30.42;101972.84;4144898;28;20020;-64
2023/05/24 04:43:18;;;;;;;;;;;;;;;24.27;30.27;101975.53;4145039;28;19926;-63
2023/05/24 04:45:20;;;;;;;;;;;;;;;24.26;30.23;101971.13;4144813;28;19932;-63
2023/05/24 04:47:21;;;;;;;;;;;;;;;24.27;30.23;101977.38;4144171;28;19933;-63
2023/05/24 04:49:23;;;;;;;;;;;;;;;24.27;30.40;101972.84;4146168;28;19929;-64
2023/05/24 04:51:25;;;;;;;;;;;;;;;24.28;29.94;101979.97;4147344;28;20208;-63
2023/05/24 04:53:26;;;;;;;;;;;;;;;24.30;30.30;101980.69;4147472;28;19932;-62
2023/05/24 04:55:27;;;;;;;;;;;;;;;24.32;30.03;101976.06;4147572;28;19926;-62
2023/05/24 04:57:29;;;;;;;;;;;;;;;24.32;29.99;101985.97;4146905;28;19926;-62
2023/05/24 04:59:31;;;;;;;;;;;;;;;24.32;30.46;101976.06;4147438;28;19926;-63
2023/05/24 05:01:33;;;;;;;;;;;;;;;24.32;30.32;101976.06;4147437;28;20371;-63
2023/05/24 05:03:34;;;;;;;;;;;;;;;24.32;30.23;101981.44;4147508;28;19932;-63
2023/05/24 05:05:36;;;;;;;;;;;;;;;24.33;30.31;101985.00;4147710;28;19930;-63
2023/05/24 05:07:39;;;;;;;;;;;;;;;24.32;30.37;101985.97;4146382;28;19932;-63
2023/05/24 05:09:40;;;;;;;;;;;;;;;24.30;30.18;101975.31;4147184;28;19968;-63
2023/05/24 05:11:42;;;;;;;;;;;;;;;24.30;30.24;101979.84;4147281;28;19968;-63
2023/05/24 05:13:44;;;;;;;;;;;;;;;24.30;30.35;101985.22;4147228;28;19960;-63
2023/05/24 05:15:46;;;;;;;;;;;;;;;24.31;30.30;101989.63;4147448;28;19925;-63
2023/05/24 05:17:47;;;;;;;;;;;;;;;24.31;30.35;101982.41;4146402;28;19999;-63
2023/05/24 05:19:49;;;;;;;;;;;;;;;24.32;30.35;101980.59;4147390;28;20432;-63
2023/05/24 05:21:50;;;;;;;;;;;;;;;24.34;29.92;101982.19;4146981;28;20019;-64
2023/05/24 05:23:53;;;;;;;;;;;;;;;24.35;30.13;101983.91;4147327;28;19926;-63
2023/05/24 05:25:55;;;;;;;;;;;;;;;24.35;29.97;101983.91;4147018;28;19983;-63
2023/05/24 05:27:56;;;;;;;;;;;;;;;24.36;30.06;101980.25;4146193;28;19932;-63
2023/05/24 05:29:58;;;;;;;;;;;;;;;24.36;29.82;101982.94;4145799;28;20411;-64
2023/05/24 05:31:59;;;;;;;;;;;;;;;24.36;29.99;101977.56;4147408;28;20412;-63
2023/05/24 05:34:01;;;;;;;;;;;;;;;24.37;30.01;101973.03;4152969;28;20306;-64
2023/05/24 05:36:03;;;;;;;;;;;;;;;24.35;30.27;101975.84;4163262;28;19937;-63
2023/05/24 05:38:05;;;;;;;;;;;;;;;24.35;30.14;101978.53;4158842;28;20020;-64
2023/05/24 05:40:06;;;;;;;;;;;;;;;24.35;29.89;101981.22;4147140;28;19926;-64
2023/05/24 05:42:08;;;;;;;;;;;;;;;24.35;30.38;101986.59;4147201;28;20301;-64
2023/05/24 05:44:13;;;;;;;;;;;;;;;24.36;30.31;101982.06;4146838;28;19951;-63
2023/05/24 05:46:14;;;;;;;;;;;;;;;24.37;30.30;101981.09;4146944;28;19933;-64
2023/05/24 05:48:16;;;;;;;;;;;;;;;24.39;30.25;101985.38;4146134;28;19936;-63
2023/05/24 05:50:18;;;;;;;;;;;;;;;24.40;29.98;101984.41;4146408;28;19926;-64
2023/05/24 05:52:19;;;;;;;;;;;;;;;24.41;30.25;101985.25;4147014;28;20057;-64
2023/05/24 05:54:21;;;;;;;;;;;;;;;24.43;29.85;101985.16;4146955;28;19947;-63
2023/05/24 05:56:22;;;;;;;;;;;;;;;24.43;30.24;101988.69;4146864;28;20033;-64
2023/05/24 05:58:24;;;;;;;;;;;;;;;24.42;30.13;101988.81;4145692;28;19925;-64
2023/05/24 06:00:25;;;;;;;;;;;;;;;24.41;30.12;101990.63;4146336;28;20403;-64
2023/05/24 06:02:27;;;;;;;;;;;;;;;24.40;29.88;101989.78;4146981;28;19926;-64
2023/05/24 06:04:29;;;;;;;;;;;;;;;24.40;30.05;101984.41;4146317;28;20402;-63
2023/05/24 06:06:31;;;;;;;;;;;;;;;24.39;30.23;101990.75;4146768;28;20262;-64
2023/05/24 06:08:33;;;;;;;;;;;;;;;24.39;30.13;101990.75;4145949;28;19965;-64
2023/05/24 06:10:35;;;;;;;;;;;;;;;24.38;30.07;101989.03;4146808;28;19935;-63
2023/05/24 06:12:39;;;;;;;;;;;;;;;24.39;30.05;101988.06;4145399;28;19935;-63
2023/05/24 06:14:40;;;;;;;;;;;;;;;24.40;29.99;101981.72;4146654;28;19933;-63
2023/05/24 06:16:44;;;;;;;;;;;;;;;24.40;30.06;101984.41;4146646;28;19975;-63
2023/05/24 06:18:46;;;;;;;;;;;;;;;24.42;29.90;101994.19;4145415;28;19925;-62
2023/05/24 06:21:09;;;;;;;;;;;;;;;24.43;29.86;101998.63;4146382;28;19930;-63
2023/05/24 06:23:10;;;;;;;;;;;;;;;24.43;29.95;102004.00;4146459;28;20351;-64
2023/05/24 06:25:14;;;;;;;;;;;;;;;24.44;29.77;102005.72;4146292;28;19956;-63
2023/05/24 06:27:15;;;;;;;;;;;;;;;24.44;30.06;102003.03;4146278;28;20322;-64
2023/05/24 06:29:20;;;;;;;;;;;;;;;24.43;29.79;102009.38;4145511;28;20024;-64
2023/05/24 06:31:22;;;;;;;;;;;;;;;24.40;29.88;102000.56;4146379;28;19978;-63
2023/05/24 06:33:23;;;;;;;;;;;;;;;24.39;29.74;101998.81;4146891;28;19939;-64
2023/05/24 06:35:26;;;;;;;;;;;;;;;24.38;29.77;102012.41;4162790;28;19944;-63
2023/05/24 06:37:29;;;;;;;;;;;;;;;24.38;29.70;102005.16;4162556;28;20016;-63
2023/05/24 06:39:31;;;;;;;;;;;;;;;24.39;29.93;102003.34;4146478;28;19949;-64
2023/05/24 06:41:33;;;;;;;;;;;;;;;24.39;29.88;102009.59;4146301;28;20043;-62
2023/05/24 06:43:34;;;;;;;;;;;;;;;24.38;29.83;101999.78;4146389;28;19929;-64
2023/05/24 06:45:36;;;;;;;;;;;;;;;24.38;29.81;102002.47;4146284;28;19933;-62
2023/05/24 06:47:37;;;;;;;;;;;;;;;24.39;29.88;102011.44;4145657;28;19929;-63
2023/05/24 06:49:39;;;;;;;;;;;;;;;24.39;29.80;102004.22;4145416;28;20024;-64
2023/05/24 06:51:40;;;;;;;;;;;;;;;24.39;29.86;102000.66;4146205;28;20396;-64
2023/05/24 06:53:42;;;;;;;;;;;;;;;24.40;29.78;102011.31;4145999;28;19986;-64
2023/05/24 06:55:44;;;;;;;;;;;;;;;24.40;29.76;102013.16;4146119;28;19952;-64
2023/05/24 06:57:45;;;;;;;;;;;;;;;24.38;29.61;102002.47;4145512;28;19925;-64
2023/05/24 06:59:47;;;;;;;;;;;;;;;24.40;29.56;102005.09;4145754;28;19926;-64
2023/05/24 07:01:52;;;;;;;;;;;;;;;24.39;29.55;101997.97;4146099;28;20019;-64
2023/05/24 07:03:53;;;;;;;;;;;;;;;24.38;29.61;102002.47;4145990;28;19925;-64
2023/05/24 07:05:55;;;;;;;;;;;;;;;24.39;29.82;101998.81;4145903;28;19958;-64
2023/05/24 07:07:57;;;;;;;;;;;;;;;24.40;29.77;102010.47;4143900;28;20431;-64
2023/05/24 07:09:59;;;;;;;;;;;;;;;24.40;29.81;102003.25;4145701;28;20012;-64
2023/05/24 07:12:01;;;;;;;;;;;;;;;24.43;29.73;102004.00;4144941;28;20268;-64
2023/05/24 07:14:02;;;;;;;;;;;;;;;24.44;29.85;102001.19;4145893;28;19932;-64
2023/05/24 07:16:05;;;;;;;;;;;;;;;24.47;29.87;102002.78;4145866;28;19925;-64
2023/05/24 07:18:06;;;;;;;;;;;;;;;24.47;29.78;102011.69;4144747;28;19937;-64
2023/05/24 07:20:09;;;;;;;;;;;;;;;24.48;29.72;102016.09;4145853;28;20008;-64
2023/05/24 07:22:11;;;;;;;;;;;;;;;24.48;29.56;102012.56;4145838;28;20107;-64
2023/05/24 07:24:12;;;;;;;;;;;;;;;24.40;29.81;101995.16;4145838;28;19933;-64
2023/05/24 07:26:16;;;;;;;;;;;;;;;24.51;29.70;102017.69;4145872;28;19936;-64
2023/05/24 07:28:19;;;;;;;;;;;;;;;24.50;29.86;102019.53;4144664;28;19932;-64
2023/05/24 07:30:20;;;;;;;;;;;;;;;24.51;29.54;102015.88;4145441;28;19972;-62
2023/05/24 07:32:33;;;;;;;;;;;;;;;24.52;29.60;102023.00;4143457;28;19925;-62
2023/05/24 07:34:34;;;;;;;;;;;;;;;24.51;29.70;102018.56;4155683;28;20426;-62
2023/05/24 07:36:36;;;;;;;;;;;;;;;24.51;29.73;102013.19;4162055;28;19974;-62
2023/05/24 07:38:37;;;;;;;;;;;;;;;24.52;29.68;102012.22;4152776;28;19929;-62
2023/05/24 07:40:40;;;;;;;;;;;;;;;24.55;29.52;102014.66;4144438;28;19951;-62
2023/05/24 07:42:42;;;;;;;;;;;;;;;24.55;29.47;102017.38;4145372;28;20016;-63
2023/05/24 07:44:43;;;;;;;;;;;;;;;24.55;29.76;102022.75;4145674;28;20373;-63
2023/05/24 07:46:45;;;;;;;;;;;;;;;24.56;29.70;102019.09;4145027;28;20012;-63
2023/05/24 07:48:47;;;;;;;;;;;;;;;24.56;29.70;102024.47;4144218;28;20329;-63
2023/05/24 07:50:49;;;;;;;;;;;;;;;24.57;29.69;102025.34;4145409;28;20347;-64
2023/05/24 07:52:50;;;;;;;;;;;;;;;24.59;29.54;102027.91;4145435;28;20418;-63
2023/05/24 07:54:52;;;;;;;;;;;;;;;24.59;29.40;102025.22;4145461;28;19937;-63
2023/05/24 07:56:56;;;;;;;;;;;;;;;24.58;29.54;102023.50;4145436;28;19935;-63
2023/05/24 07:59:03;;;;;;;;;;;;;;;24.59;29.38;102028.75;4144340;28;19932;-63
2023/05/24 08:01:05;;;;;;;;;;;;;;;24.59;29.76;102033.28;4143756;28;19926;-64
2023/05/24 08:03:06;;;;;;;;;;;;;;;24.59;29.78;102025.22;4145305;28;20025;-63
2023/05/24 08:05:10;;;;;;;;;;;;;;;24.60;29.51;102024.25;4145221;28;19933;-63
2023/05/24 08:07:13;;;;;;;;;;;;;;;24.61;29.67;102024.13;4145244;28;20020;-63
2023/05/24 08:09:15;;;;;;;;;;;;;;;24.63;29.62;102014.13;4144277;28;20379;-63
2023/05/24 08:11:17;;;;;;;;;;;;;;;24.65;29.44;102022.06;4143479;28;20275;-64
2023/05/24 08:13:18;;;;;;;;;;;;;;;24.65;29.84;102030.13;4145022;28;19955;-63
2023/05/24 08:15:20;;;;;;;;;;;;;;;24.63;29.33;102027.56;4144811;28;19925;-64
2023/05/24 08:17:21;;;;;;;;;;;;;;;24.50;29.53;102027.63;4141826;28;19926;-63
2023/05/24 08:19:23;;;;;;;;;;;;;;;24.32;29.36;102024.44;4141112;28;20451;-61
2023/05/24 08:21:25;;;;;;;;;;;;;;;24.04;28.59;102029.16;4143374;28;19925;-59
2023/05/24 08:23:28;;;;;;;;;;;;;;;23.83;28.64;102020.78;4143677;28;20410;-60
2023/05/24 08:25:30;;;;;;;;;;;;;;;23.74;28.83;102024.09;4144074;28;19930;-60
2023/05/24 08:27:32;;;;;;;;;;;;;;;23.69;28.59;102028.97;4142142;28;19930;-63
2023/05/24 08:29:34;;;;;;;;;;;;;;;23.56;28.20;102037.88;4142824;28;20382;-60
2023/05/24 08:31:37;;;;;;;;;;;;;;;23.44;28.25;102030.69;4144348;28;20097;-60
2023/05/24 08:33:39;;;;;;;;;;;;;;;23.19;27.96;102031.50;4147479;28;20247;-61
2023/05/24 08:35:40;;;;;;;;;;;;;;;23.08;27.93;102033.06;4161003;28;19970;-61
2023/05/24 08:37:42;;;;;;;;;;;;;;;22.97;28.25;102024.88;4160489;28;19949;-62
2023/05/24 08:39:43;;;;;;;;;;;;;;;22.84;28.26;102029.38;4137294;28;19943;-60
2023/05/24 08:41:45;;;;;;;;;;;;;;;22.77;28.74;102021.72;4141642;28;20362;-60
2023/05/24 08:44:07;;;;;;;;;;;;;;;22.71;28.34;102018.56;4148024;28;20436;-59
2023/05/24 08:46:09;;;;;;;;;;;;;;;22.67;28.77;102022.44;4127408;28;20405;-61
2023/05/24 08:48:12;;;;;;;;;;;;;;;22.55;28.86;102033.00;4136575;28;19930;-60
2023/05/24 08:50:14;;;;;;;;;;;;;;;22.57;28.85;102032.91;4144002;28;19975;-59
2023/05/24 08:52:16;;;;;;;;;;;;;;;22.64;28.53;102024.34;4144005;28;19925;-59
2023/05/24 08:54:19;;;;;;;;;;;;;;;22.65;28.54;102028.75;4142255;28;20440;-65
2023/05/24 08:56:22;;;;;;;;;;;;;;;22.73;28.33;102022.03;4151528;28;19932;-64
2023/05/24 08:58:23;;;;;;;;;;;;;;;22.80;28.34;102024.19;4157461;28;19974;-65
2023/05/24 09:00:25;;;;;;;;;;;;;;;22.85;28.34;102015.84;4159280;28;19973;-60
2023/05/24 09:02:27;;;;;;;;;;;;;;;22.90;27.88;102019.06;4159585;28;20424;-60
2023/05/24 09:04:29;;;;;;;;;;;;;;;22.94;27.92;102014.34;4159303;28;20390;-60
2023/05/24 09:06:31;;;;;;;;;;;;;;;22.98;27.03;102014.03;4159676;28;19979;-63
2023/05/24 09:08:34;;;;;;;;;;;;;;;22.96;26.91;102015.13;4159166;28;20317;-59
2023/05/24 09:10:36;;;;;;;;;;;;;;;22.86;27.02;102008.66;4160040;28;19961;-65
2023/05/24 09:12:54;;;;;;;;;;;;;;;22.93;26.72;102013.50;4175215;28;19935;-60
2023/05/24 09:14:56;;;;;;;;;;;;;;;22.98;26.96;102013.19;4229313;28;19934;-60
2023/05/24 09:16:58;;;;;;;;;;;;;;;22.97;27.02;102011.47;4190442;28;19947;-59
2023/05/24 09:19:00;;;;;;;;;;;;;;;22.99;27.07;102006.88;4151346;28;20403;-60
2023/05/24 09:21:02;;;;;;;;;;;;;;;23.02;26.65;102003.97;4162127;28;19925;-60
2023/05/24 09:23:04;;;;;;;;;;;;;;;23.02;26.51;102008.47;4166194;28;20024;-62
2023/05/24 09:25:07;;;;;;;;;;;;;;;23.00;26.53;101995.16;4138319;28;19934;-61
2023/05/24 09:27:09;;;;;;;;;;;;;;;23.04;26.75;102007.41;4181396;28;19935;-60
2023/05/24 09:29:11;;;;;;;;;;;;;;;23.04;26.51;102001.16;4126838;28;19932;-62
2023/05/24 09:31:12;;;;;;;;;;;;;;;23.11;25.83;101999.78;4176574;28;20361;-62
2023/05/24 09:33:14;;;;;;;;;;;;;;;23.10;25.61;102007.00;4169846;28;19926;-62
2023/05/24 09:35:16;;;;;;;;;;;;;;;23.07;26.08;102003.66;4161756;28;19954;-63
2023/05/24 09:37:20;;;;;;;;;;;;;;;23.09;25.49;102004.41;4180967;28;19953;-62
2023/05/24 09:39:27;;;;;;;;;;;;;;;23.06;25.30;102008.19;4214984;28;20389;-63
2023/05/24 09:41:28;;;;;;;;;;;;;;;23.08;25.03;102000.00;4180199;28;19985;-63
2023/05/24 09:43:31;;;;;;;;;;;;;;;23.03;24.89;101996.78;4176193;28;19986;-63
2023/05/24 09:45:37;;;;;;;;;;;;;;;22.97;24.82;101992.69;4152667;28;19930;-63
2023/05/24 09:47:40;;;;;;;;;;;;;;;22.89;25.20;101997.72;4201612;28;19931;-62
2023/05/24 09:49:42;;;;;;;;;;;;;;;23.00;24.93;101999.66;4145677;28;19957;-64
2023/05/24 09:51:44;;;;;;;;;;;;;;;23.01;25.12;101996.03;4176916;28;20041;-64
2023/05/24 09:53:47;;;;;;;;;;;;;;;23.05;25.11;101994.84;4156953;28;19977;-63
2023/05/24 09:55:53;;;;;;;;;;;;;;;22.98;25.63;101994.41;4186876;28;20389;-63
2023/05/24 09:58:02;;;;;;;;;;;;;;;23.00;25.49;101995.16;4200663;28;20371;-63
2023/05/24 10:00:13;;;;;;;;;;;;;;;22.93;25.46;101985.78;4145144;28;20279;-64
2023/05/24 10:02:17;;;;;;;;;;;;;;;22.95;25.32;101991.94;4183806;28;20248;-63
2023/05/24 10:04:31;;;;;;;;;;;;;;;22.97;25.91;101996.22;4170993;28;20349;-63
2023/05/24 10:06:36;;;;;;;;;;;;;;;22.99;25.14;101985.41;4153486;28;19923;-63
2023/05/24 10:08:37;;;;;;;;;;;;;;;22.99;25.52;101985.41;4203083;28;19953;-63
2023/05/24 10:10:40;;;;;;;;;;;;;;;22.95;25.33;101990.13;4145647;28;20352;-62
2023/05/24 10:12:45;;;;;;;;;;;;;;;22.97;25.21;101976.59;4188559;28;19924;-62
2023/05/24 10:14:47;;;;;;;;;;;;;;;22.98;24.86;101984.53;4165099;28;19926;-63
2023/05/24 10:16:49;;;;;;;;;;;;;;;22.95;25.18;101983.88;4153143;28;19927;-62
2023/05/24 10:18:50;;;;;;;;;;;;;;;22.96;25.03;101974.88;4203211;28;20005;-62
2023/05/24 10:20:54;;;;;;;;;;;;;;;22.98;25.38;101972.94;4146062;28;20392;-63
2023/05/24 10:23:03;;;;;;;;;;;;;;;22.99;25.36;101966.63;4183146;28;20044;-64
2023/05/24 10:25:05;;;;;;;;;;;;;;;22.98;25.35;101978.31;4167005;27;19926;-64
2023/05/24 10:27:11;;;;;;;;;;;;;;;23.03;25.24;101970.81;4180631;28;19934;-64
2023/05/24 10:29:18;;;;;;;;;;;;;;;23.07;25.11;101960.72;4172425;28;19923;-64